sensor_id;sensor_type;location;lat;lon;timestamp;P1;durP1;ratioP1;P2;durP2;ratioP2
26594;SDS011;14238;49.496;8.154;2023-09-18T00:00:54;4.13;;;3.83;;
26594;SDS011;14238;49.496;8.154;2023-09-18T00:03:23;4.40;;;4.00;;
26594;SDS011;14238;49.496;8.154;2023-09-18T00:05:52;4.23;;;3.93;;
26594;SDS011;14238;49.496;8.154;2023-09-18T00:08:18;6.07;;;3.90;;
26594;SDS011;14238;49.496;8.154;2023-09-18T00:10:47;3.97;;;3.50;;
26594;SDS011;14238;49.496;8.154;2023-09-18T00:13:18;4.50;;;4.10;;
26594;SDS011;14238;49.496;8.154;2023-09-18T00:15:43;4.80;;;4.10;;
26594;SDS011;14238;49.496;8.154;2023-09-18T00:18:11;4.07;;;3.67;;
26594;SDS011;14238;49.496;8.154;2023-09-18T00:20:38;3.80;;;3.50;;
26594;SDS011;14238;49.496;8.154;2023-09-18T00:23:05;3.70;;;3.47;;
26594;SDS011;14238;49.496;8.154;2023-09-18T00:25:31;4.20;;;3.60;;
26594;SDS011;14238;49.496;8.154;2023-09-18T00:27:57;4.30;;;3.77;;
26594;SDS011;14238;49.496;8.154;2023-09-18T00:30:22;3.30;;;3.10;;
26594;SDS011;14238;49.496;8.154;2023-09-18T00:32:48;4.97;;;3.80;;
26594;SDS011;14238;49.496;8.154;2023-09-18T00:35:14;4.53;;;4.03;;
26594;SDS011;14238;49.496;8.154;2023-09-18T00:37:40;4.13;;;3.73;;
26594;SDS011;14238;49.496;8.154;2023-09-18T00:40:06;3.40;;;3.10;;
26594;SDS011;14238;49.496;8.154;2023-09-18T00:42:32;4.23;;;3.67;;
26594;SDS011;14238;49.496;8.154;2023-09-18T00:44:58;3.23;;;3.00;;
26594;SDS011;14238;49.496;8.154;2023-09-18T00:47:23;4.13;;;3.70;;
26594;SDS011;14238;49.496;8.154;2023-09-18T00:49:49;3.97;;;3.67;;
26594;SDS011;14238;49.496;8.154;2023-09-18T00:52:17;3.47;;;3.17;;
26594;SDS011;14238;49.496;8.154;2023-09-18T00:54:45;3.77;;;3.47;;
26594;SDS011;14238;49.496;8.154;2023-09-18T00:57:13;2.90;;;2.70;;
26594;SDS011;14238;49.496;8.154;2023-09-18T00:59:39;3.50;;;3.30;;
26594;SDS011;14238;49.496;8.154;2023-09-18T01:02:05;3.77;;;3.50;;
26594;SDS011;14238;49.496;8.154;2023-09-18T01:04:30;3.70;;;3.40;;
26594;SDS011;14238;49.496;8.154;2023-09-18T01:06:58;3.93;;;3.20;;
26594;SDS011;14238;49.496;8.154;2023-09-18T01:09:28;3.63;;;3.43;;
26594;SDS011;14238;49.496;8.154;2023-09-18T01:15:07;3.67;;;3.43;;
26594;SDS011;14238;49.496;8.154;2023-09-18T01:17:39;3.30;;;3.10;;
26594;SDS011;14238;49.496;8.154;2023-09-18T01:20:10;5.90;;;3.67;;
26594;SDS011;14238;49.496;8.154;2023-09-18T01:22:36;3.73;;;3.43;;
26594;SDS011;14238;49.496;8.154;2023-09-18T01:25:02;4.70;;;3.60;;
26594;SDS011;14238;49.496;8.154;2023-09-18T01:27:28;10.53;;;3.30;;
26594;SDS011;14238;49.496;8.154;2023-09-18T01:29:53;4.23;;;3.33;;
26594;SDS011;14238;49.496;8.154;2023-09-18T01:32:19;11.20;;;3.90;;
26594;SDS011;14238;49.496;8.154;2023-09-18T01:34:50;9.70;;;4.20;;
26594;SDS011;14238;49.496;8.154;2023-09-18T01:37:21;5.50;;;3.67;;
26594;SDS011;14238;49.496;8.154;2023-09-18T01:39:52;6.67;;;3.63;;
26594;SDS011;14238;49.496;8.154;2023-09-18T01:42:18;5.43;;;4.10;;
26594;SDS011;14238;49.496;8.154;2023-09-18T01:44:44;4.20;;;3.80;;
26594;SDS011;14238;49.496;8.154;2023-09-18T01:47:15;6.03;;;3.93;;
26594;SDS011;14238;49.496;8.154;2023-09-18T01:49:43;6.53;;;3.60;;
26594;SDS011;14238;49.496;8.154;2023-09-18T01:52:09;9.70;;;3.60;;
26594;SDS011;14238;49.496;8.154;2023-09-18T01:54:35;6.43;;;4.40;;
26594;SDS011;14238;49.496;8.154;2023-09-18T01:57:01;3.60;;;3.13;;
26594;SDS011;14238;49.496;8.154;2023-09-18T01:59:27;5.10;;;3.40;;
26594;SDS011;14238;49.496;8.154;2023-09-18T02:01:53;5.17;;;4.00;;
26594;SDS011;14238;49.496;8.154;2023-09-18T02:04:19;7.17;;;4.10;;
26594;SDS011;14238;49.496;8.154;2023-09-18T02:06:46;4.57;;;4.13;;
26594;SDS011;14238;49.496;8.154;2023-09-18T02:09:12;6.43;;;4.00;;
26594;SDS011;14238;49.496;8.154;2023-09-18T02:11:39;4.83;;;3.70;;
26594;SDS011;14238;49.496;8.154;2023-09-18T02:14:06;6.57;;;4.27;;
26594;SDS011;14238;49.496;8.154;2023-09-18T02:16:32;7.77;;;4.33;;
26594;SDS011;14238;49.496;8.154;2023-09-18T02:18:58;5.60;;;4.07;;
26594;SDS011;14238;49.496;8.154;2023-09-18T02:21:24;6.90;;;3.97;;
26594;SDS011;14238;49.496;8.154;2023-09-18T02:23:51;5.30;;;3.37;;
26594;SDS011;14238;49.496;8.154;2023-09-18T02:26:17;6.20;;;3.53;;
26594;SDS011;14238;49.496;8.154;2023-09-18T02:28:43;9.47;;;3.67;;
26594;SDS011;14238;49.496;8.154;2023-09-18T02:31:09;11.30;;;4.03;;
26594;SDS011;14238;49.496;8.154;2023-09-18T02:33:35;9.30;;;4.13;;
26594;SDS011;14238;49.496;8.154;2023-09-18T02:36:01;7.23;;;4.10;;
26594;SDS011;14238;49.496;8.154;2023-09-18T02:38:27;8.50;;;4.10;;
26594;SDS011;14238;49.496;8.154;2023-09-18T02:40:53;9.37;;;4.50;;
26594;SDS011;14238;49.496;8.154;2023-09-18T02:43:19;9.70;;;4.20;;
26594;SDS011;14238;49.496;8.154;2023-09-18T02:45:46;7.50;;;5.17;;
26594;SDS011;14238;49.496;8.154;2023-09-18T02:48:11;9.23;;;4.33;;
26594;SDS011;14238;49.496;8.154;2023-09-18T02:50:37;10.93;;;4.67;;
26594;SDS011;14238;49.496;8.154;2023-09-18T02:53:05;11.27;;;4.40;;
26594;SDS011;14238;49.496;8.154;2023-09-18T02:55:32;8.33;;;4.00;;
26594;SDS011;14238;49.496;8.154;2023-09-18T02:57:57;15.27;;;5.13;;
26594;SDS011;14238;49.496;8.154;2023-09-18T03:00:24;12.20;;;3.97;;
26594;SDS011;14238;49.496;8.154;2023-09-18T03:02:49;9.47;;;4.70;;
26594;SDS011;14238;49.496;8.154;2023-09-18T03:05:15;9.70;;;5.17;;
26594;SDS011;14238;49.496;8.154;2023-09-18T03:07:40;5.00;;;3.73;;
26594;SDS011;14238;49.496;8.154;2023-09-18T03:10:06;8.00;;;4.53;;
26594;SDS011;14238;49.496;8.154;2023-09-18T03:12:32;9.00;;;4.77;;
26594;SDS011;14238;49.496;8.154;2023-09-18T03:14:58;6.50;;;4.43;;
26594;SDS011;14238;49.496;8.154;2023-09-18T03:17:24;9.53;;;4.30;;
26594;SDS011;14238;49.496;8.154;2023-09-18T03:19:50;9.80;;;4.80;;
26594;SDS011;14238;49.496;8.154;2023-09-18T03:22:15;7.00;;;3.70;;
26594;SDS011;14238;49.496;8.154;2023-09-18T03:24:41;7.60;;;5.17;;
26594;SDS011;14238;49.496;8.154;2023-09-18T03:27:06;7.53;;;4.57;;
26594;SDS011;14238;49.496;8.154;2023-09-18T03:29:32;7.27;;;3.90;;
26594;SDS011;14238;49.496;8.154;2023-09-18T03:31:57;9.87;;;3.30;;
26594;SDS011;14238;49.496;8.154;2023-09-18T03:34:24;6.87;;;3.90;;
26594;SDS011;14238;49.496;8.154;2023-09-18T03:36:53;8.87;;;3.47;;
26594;SDS011;14238;49.496;8.154;2023-09-18T03:39:19;5.33;;;3.37;;
26594;SDS011;14238;49.496;8.154;2023-09-18T03:41:45;6.43;;;2.77;;
26594;SDS011;14238;49.496;8.154;2023-09-18T03:44:10;8.97;;;3.27;;
26594;SDS011;14238;49.496;8.154;2023-09-18T03:46:36;5.47;;;2.47;;
26594;SDS011;14238;49.496;8.154;2023-09-18T03:49:02;9.53;;;2.93;;
26594;SDS011;14238;49.496;8.154;2023-09-18T03:51:28;8.37;;;3.27;;
26594;SDS011;14238;49.496;8.154;2023-09-18T03:53:54;4.40;;;2.87;;
26594;SDS011;14238;49.496;8.154;2023-09-18T03:56:20;9.17;;;3.70;;
26594;SDS011;14238;49.496;8.154;2023-09-18T03:58:46;6.53;;;2.90;;
26594;SDS011;14238;49.496;8.154;2023-09-18T04:01:14;5.00;;;3.10;;
26594;SDS011;14238;49.496;8.154;2023-09-18T04:03:40;5.03;;;2.40;;
26594;SDS011;14238;49.496;8.154;2023-09-18T04:06:06;6.30;;;3.23;;
26594;SDS011;14238;49.496;8.154;2023-09-18T04:08:31;7.43;;;3.03;;
26594;SDS011;14238;49.496;8.154;2023-09-18T04:10:57;3.53;;;2.73;;
26594;SDS011;14238;49.496;8.154;2023-09-18T04:13:23;5.83;;;3.23;;
26594;SDS011;14238;49.496;8.154;2023-09-18T04:15:49;7.13;;;2.90;;
26594;SDS011;14238;49.496;8.154;2023-09-18T04:18:14;5.67;;;2.43;;
26594;SDS011;14238;49.496;8.154;2023-09-18T04:20:40;5.30;;;3.20;;
26594;SDS011;14238;49.496;8.154;2023-09-18T04:23:19;6.17;;;3.20;;
26594;SDS011;14238;49.496;8.154;2023-09-18T04:25:49;6.50;;;3.57;;
26594;SDS011;14238;49.496;8.154;2023-09-18T04:28:16;8.93;;;2.97;;
26594;SDS011;14238;49.496;8.154;2023-09-18T04:30:44;10.40;;;3.37;;
26594;SDS011;14238;49.496;8.154;2023-09-18T04:33:10;7.13;;;3.33;;
26594;SDS011;14238;49.496;8.154;2023-09-18T04:35:37;6.87;;;3.27;;
26594;SDS011;14238;49.496;8.154;2023-09-18T04:38:04;6.60;;;2.87;;
26594;SDS011;14238;49.496;8.154;2023-09-18T04:40:31;6.90;;;3.90;;
26594;SDS011;14238;49.496;8.154;2023-09-18T04:43:00;5.77;;;3.33;;
26594;SDS011;14238;49.496;8.154;2023-09-18T04:45:26;8.47;;;3.90;;
26594;SDS011;14238;49.496;8.154;2023-09-18T04:47:53;9.93;;;3.70;;
26594;SDS011;14238;49.496;8.154;2023-09-18T04:50:19;4.43;;;2.90;;
26594;SDS011;14238;49.496;8.154;2023-09-18T04:52:44;11.30;;;3.70;;
26594;SDS011;14238;49.496;8.154;2023-09-18T04:55:10;3.83;;;3.23;;
26594;SDS011;14238;49.496;8.154;2023-09-18T04:57:37;7.50;;;4.37;;
26594;SDS011;14238;49.496;8.154;2023-09-18T05:00:03;4.17;;;3.23;;
26594;SDS011;14238;49.496;8.154;2023-09-18T05:02:38;5.90;;;3.50;;
26594;SDS011;14238;49.496;8.154;2023-09-18T05:05:04;7.67;;;4.13;;
26594;SDS011;14238;49.496;8.154;2023-09-18T05:07:29;9.07;;;3.97;;
26594;SDS011;14238;49.496;8.154;2023-09-18T05:09:55;7.23;;;3.67;;
26594;SDS011;14238;49.496;8.154;2023-09-18T05:12:21;6.03;;;3.57;;
26594;SDS011;14238;49.496;8.154;2023-09-18T05:14:47;7.13;;;3.30;;
26594;SDS011;14238;49.496;8.154;2023-09-18T05:17:14;9.87;;;4.50;;
26594;SDS011;14238;49.496;8.154;2023-09-18T05:19:40;4.33;;;2.93;;
26594;SDS011;14238;49.496;8.154;2023-09-18T05:22:07;10.33;;;4.23;;
26594;SDS011;14238;49.496;8.154;2023-09-18T05:24:35;6.17;;;3.60;;
26594;SDS011;14238;49.496;8.154;2023-09-18T05:27:01;7.43;;;4.10;;
26594;SDS011;14238;49.496;8.154;2023-09-18T05:29:27;7.53;;;4.10;;
26594;SDS011;14238;49.496;8.154;2023-09-18T05:31:52;8.10;;;3.83;;
26594;SDS011;14238;49.496;8.154;2023-09-18T05:34:18;10.27;;;4.20;;
26594;SDS011;14238;49.496;8.154;2023-09-18T05:36:43;6.70;;;4.13;;
26594;SDS011;14238;49.496;8.154;2023-09-18T05:39:09;7.70;;;3.53;;
26594;SDS011;14238;49.496;8.154;2023-09-18T05:41:37;8.83;;;4.23;;
26594;SDS011;14238;49.496;8.154;2023-09-18T05:44:06;8.80;;;4.87;;
26594;SDS011;14238;49.496;8.154;2023-09-18T05:46:33;7.90;;;3.60;;
26594;SDS011;14238;49.496;8.154;2023-09-18T05:49:00;5.73;;;3.80;;
26594;SDS011;14238;49.496;8.154;2023-09-18T05:51:26;4.30;;;3.10;;
26594;SDS011;14238;49.496;8.154;2023-09-18T05:53:52;5.03;;;3.90;;
26594;SDS011;14238;49.496;8.154;2023-09-18T05:56:17;9.97;;;4.40;;
26594;SDS011;14238;49.496;8.154;2023-09-18T05:58:43;8.17;;;3.90;;
26594;SDS011;14238;49.496;8.154;2023-09-18T06:01:09;5.37;;;3.50;;
26594;SDS011;14238;49.496;8.154;2023-09-18T06:03:34;7.93;;;3.53;;
26594;SDS011;14238;49.496;8.154;2023-09-18T06:06:04;6.13;;;4.03;;
26594;SDS011;14238;49.496;8.154;2023-09-18T06:08:35;9.70;;;4.10;;
26594;SDS011;14238;49.496;8.154;2023-09-18T06:11:01;8.90;;;3.80;;
26594;SDS011;14238;49.496;8.154;2023-09-18T06:13:27;8.80;;;3.63;;
26594;SDS011;14238;49.496;8.154;2023-09-18T06:15:53;4.57;;;3.53;;
26594;SDS011;14238;49.496;8.154;2023-09-18T06:18:20;9.23;;;3.87;;
26594;SDS011;14238;49.496;8.154;2023-09-18T06:20:49;7.40;;;3.50;;
26594;SDS011;14238;49.496;8.154;2023-09-18T06:23:15;9.23;;;3.70;;
26594;SDS011;14238;49.496;8.154;2023-09-18T06:25:41;9.97;;;5.10;;
26594;SDS011;14238;49.496;8.154;2023-09-18T06:28:06;7.70;;;4.20;;
26594;SDS011;14238;49.496;8.154;2023-09-18T06:30:32;5.33;;;3.07;;
26594;SDS011;14238;49.496;8.154;2023-09-18T06:32:59;8.73;;;3.27;;
26594;SDS011;14238;49.496;8.154;2023-09-18T06:35:26;4.43;;;3.23;;
26594;SDS011;14238;49.496;8.154;2023-09-18T06:37:51;7.17;;;3.50;;
26594;SDS011;14238;49.496;8.154;2023-09-18T06:40:19;7.33;;;3.30;;
26594;SDS011;14238;49.496;8.154;2023-09-18T06:42:45;10.43;;;3.67;;
26594;SDS011;14238;49.496;8.154;2023-09-18T06:45:10;6.67;;;2.60;;
26594;SDS011;14238;49.496;8.154;2023-09-18T06:47:36;7.83;;;3.30;;
26594;SDS011;14238;49.496;8.154;2023-09-18T06:50:02;4.70;;;2.90;;
26594;SDS011;14238;49.496;8.154;2023-09-18T06:52:30;6.37;;;4.00;;
26594;SDS011;14238;49.496;8.154;2023-09-18T06:54:56;9.23;;;3.70;;
26594;SDS011;14238;49.496;8.154;2023-09-18T06:57:23;6.17;;;2.97;;
26594;SDS011;14238;49.496;8.154;2023-09-18T06:59:49;4.87;;;3.30;;
26594;SDS011;14238;49.496;8.154;2023-09-18T07:02:14;5.93;;;3.03;;
26594;SDS011;14238;49.496;8.154;2023-09-18T07:04:40;6.67;;;2.80;;
26594;SDS011;14238;49.496;8.154;2023-09-18T07:07:10;10.57;;;2.87;;
26594;SDS011;14238;49.496;8.154;2023-09-18T07:09:40;3.10;;;2.20;;
26594;SDS011;14238;49.496;8.154;2023-09-18T07:12:06;3.50;;;2.03;;
26594;SDS011;14238;49.496;8.154;2023-09-18T07:14:33;4.03;;;3.60;;
26594;SDS011;14238;49.496;8.154;2023-09-18T07:16:58;5.07;;;2.37;;
26594;SDS011;14238;49.496;8.154;2023-09-18T07:19:25;5.60;;;2.40;;
26594;SDS011;14238;49.496;8.154;2023-09-18T07:21:51;3.97;;;2.63;;
26594;SDS011;14238;49.496;8.154;2023-09-18T07:24:17;3.00;;;2.10;;
26594;SDS011;14238;49.496;8.154;2023-09-18T07:26:43;3.40;;;1.80;;
26594;SDS011;14238;49.496;8.154;2023-09-18T07:29:10;4.17;;;2.37;;
26594;SDS011;14238;49.496;8.154;2023-09-18T07:31:36;5.07;;;2.50;;
26594;SDS011;14238;49.496;8.154;2023-09-18T07:34:01;3.27;;;2.40;;
26594;SDS011;14238;49.496;8.154;2023-09-18T07:36:29;3.13;;;2.20;;
26594;SDS011;14238;49.496;8.154;2023-09-18T07:38:55;4.90;;;2.20;;
26594;SDS011;14238;49.496;8.154;2023-09-18T07:41:21;3.07;;;2.23;;
26594;SDS011;14238;49.496;8.154;2023-09-18T07:43:47;4.10;;;2.27;;
26594;SDS011;14238;49.496;8.154;2023-09-18T07:46:13;4.23;;;2.37;;
26594;SDS011;14238;49.496;8.154;2023-09-18T07:48:38;3.33;;;2.53;;
26594;SDS011;14238;49.496;8.154;2023-09-18T07:51:04;2.60;;;1.73;;
26594;SDS011;14238;49.496;8.154;2023-09-18T07:53:29;2.03;;;1.80;;
26594;SDS011;14238;49.496;8.154;2023-09-18T07:55:56;4.90;;;2.50;;
26594;SDS011;14238;49.496;8.154;2023-09-18T07:58:27;4.63;;;2.10;;
26594;SDS011;14238;49.496;8.154;2023-09-18T08:00:54;5.63;;;2.80;;
26594;SDS011;14238;49.496;8.154;2023-09-18T08:03:20;5.80;;;2.50;;
26594;SDS011;14238;49.496;8.154;2023-09-18T08:05:49;3.93;;;2.80;;
26594;SDS011;14238;49.496;8.154;2023-09-18T08:08:16;2.50;;;1.70;;
26594;SDS011;14238;49.496;8.154;2023-09-18T08:10:42;3.07;;;1.90;;
26594;SDS011;14238;49.496;8.154;2023-09-18T08:13:08;4.10;;;2.30;;
26594;SDS011;14238;49.496;8.154;2023-09-18T08:15:34;4.40;;;1.80;;
26594;SDS011;14238;49.496;8.154;2023-09-18T08:17:59;2.20;;;2.00;;
26594;SDS011;14238;49.496;8.154;2023-09-18T08:20:25;2.80;;;1.87;;
26594;SDS011;14238;49.496;8.154;2023-09-18T08:22:53;2.93;;;1.93;;
26594;SDS011;14238;49.496;8.154;2023-09-18T08:25:18;2.50;;;1.67;;
26594;SDS011;14238;49.496;8.154;2023-09-18T08:27:44;4.43;;;2.57;;
26594;SDS011;14238;49.496;8.154;2023-09-18T08:30:12;3.20;;;1.80;;
26594;SDS011;14238;49.496;8.154;2023-09-18T08:32:39;3.50;;;1.93;;
26594;SDS011;14238;49.496;8.154;2023-09-18T08:35:05;4.10;;;1.87;;
26594;SDS011;14238;49.496;8.154;2023-09-18T08:37:33;4.87;;;1.90;;
26594;SDS011;14238;49.496;8.154;2023-09-18T08:39:59;1.77;;;1.67;;
26594;SDS011;14238;49.496;8.154;2023-09-18T08:42:34;4.57;;;2.03;;
26594;SDS011;14238;49.496;8.154;2023-09-18T08:45:02;4.53;;;2.03;;
26594;SDS011;14238;49.496;8.154;2023-09-18T08:47:34;3.07;;;1.90;;
26594;SDS011;14238;49.496;8.154;2023-09-18T08:50:00;2.70;;;2.40;;
26594;SDS011;14238;49.496;8.154;2023-09-18T08:52:27;2.10;;;1.67;;
26594;SDS011;14238;49.496;8.154;2023-09-18T08:54:53;2.23;;;1.93;;
26594;SDS011;14238;49.496;8.154;2023-09-18T08:57:20;4.53;;;2.33;;
26594;SDS011;14238;49.496;8.154;2023-09-18T08:59:46;5.80;;;2.10;;
26594;SDS011;14238;49.496;8.154;2023-09-18T09:02:13;2.27;;;1.77;;
26594;SDS011;14238;49.496;8.154;2023-09-18T09:04:39;2.57;;;2.10;;
26594;SDS011;14238;49.496;8.154;2023-09-18T09:07:05;2.57;;;1.80;;
26594;SDS011;14238;49.496;8.154;2023-09-18T09:09:31;7.17;;;2.30;;
26594;SDS011;14238;49.496;8.154;2023-09-18T09:11:57;3.30;;;2.17;;
26594;SDS011;14238;49.496;8.154;2023-09-18T09:14:22;3.57;;;2.37;;
26594;SDS011;14238;49.496;8.154;2023-09-18T09:16:53;4.23;;;2.37;;
26594;SDS011;14238;49.496;8.154;2023-09-18T09:19:33;2.20;;;2.00;;
26594;SDS011;14238;49.496;8.154;2023-09-18T09:22:04;3.00;;;2.00;;
26594;SDS011;14238;49.496;8.154;2023-09-18T09:24:37;4.83;;;2.20;;
26594;SDS011;14238;49.496;8.154;2023-09-18T09:27:03;5.93;;;2.17;;
26594;SDS011;14238;49.496;8.154;2023-09-18T09:29:29;5.33;;;2.17;;
26594;SDS011;14238;49.496;8.154;2023-09-18T09:31:55;4.87;;;2.03;;
26594;SDS011;14238;49.496;8.154;2023-09-18T09:34:27;3.70;;;2.00;;
26594;SDS011;14238;49.496;8.154;2023-09-18T09:36:55;2.27;;;1.50;;
26594;SDS011;14238;49.496;8.154;2023-09-18T09:39:22;3.17;;;2.03;;
26594;SDS011;14238;49.496;8.154;2023-09-18T09:41:53;1.90;;;1.80;;
26594;SDS011;14238;49.496;8.154;2023-09-18T09:44:18;1.93;;;1.67;;
26594;SDS011;14238;49.496;8.154;2023-09-18T09:46:49;2.23;;;2.03;;
26594;SDS011;14238;49.496;8.154;2023-09-18T09:49:16;3.23;;;2.00;;
26594;SDS011;14238;49.496;8.154;2023-09-18T09:51:44;3.90;;;2.00;;
26594;SDS011;14238;49.496;8.154;2023-09-18T09:54:10;2.23;;;2.10;;
26594;SDS011;14238;49.496;8.154;2023-09-18T09:59:19;4.40;;;2.00;;
26594;SDS011;14238;49.496;8.154;2023-09-18T10:01:48;2.13;;;1.80;;
26594;SDS011;14238;49.496;8.154;2023-09-18T10:04:17;2.10;;;1.63;;
26594;SDS011;14238;49.496;8.154;2023-09-18T10:06:44;4.53;;;2.30;;
26594;SDS011;14238;49.496;8.154;2023-09-18T10:09:14;2.13;;;1.73;;
26594;SDS011;14238;49.496;8.154;2023-09-18T10:11:41;2.93;;;1.73;;
26594;SDS011;14238;49.496;8.154;2023-09-18T10:14:16;2.57;;;1.90;;
26594;SDS011;14238;49.496;8.154;2023-09-18T10:16:54;2.90;;;1.80;;
26594;SDS011;14238;49.496;8.154;2023-09-18T10:19:25;4.97;;;1.90;;
26594;SDS011;14238;49.496;8.154;2023-09-18T10:22:17;3.10;;;2.00;;
26594;SDS011;14238;49.496;8.154;2023-09-18T10:24:53;2.07;;;1.77;;
26594;SDS011;14238;49.496;8.154;2023-09-18T10:27:25;2.03;;;1.73;;
26594;SDS011;14238;49.496;8.154;2023-09-18T10:29:53;4.83;;;1.80;;
26594;SDS011;14238;49.496;8.154;2023-09-18T10:32:19;2.83;;;1.90;;
26594;SDS011;14238;49.496;8.154;2023-09-18T10:34:47;1.70;;;1.60;;
26594;SDS011;14238;49.496;8.154;2023-09-18T10:37:15;2.13;;;1.83;;
26594;SDS011;14238;49.496;8.154;2023-09-18T10:39:41;2.93;;;1.43;;
26594;SDS011;14238;49.496;8.154;2023-09-18T10:42:09;3.57;;;1.90;;
26594;SDS011;14238;49.496;8.154;2023-09-18T10:44:37;1.90;;;1.50;;
26594;SDS011;14238;49.496;8.154;2023-09-18T10:47:06;2.23;;;1.90;;
26594;SDS011;14238;49.496;8.154;2023-09-18T10:49:35;5.17;;;1.70;;
26594;SDS011;14238;49.496;8.154;2023-09-18T10:52:01;3.10;;;1.80;;
26594;SDS011;14238;49.496;8.154;2023-09-18T10:54:27;2.07;;;1.87;;
26594;SDS011;14238;49.496;8.154;2023-09-18T10:56:55;4.93;;;1.93;;
26594;SDS011;14238;49.496;8.154;2023-09-18T10:59:21;4.67;;;1.67;;
26594;SDS011;14238;49.496;8.154;2023-09-18T11:01:47;3.30;;;2.17;;
26594;SDS011;14238;49.496;8.154;2023-09-18T11:04:17;2.33;;;2.00;;
26594;SDS011;14238;49.496;8.154;2023-09-18T11:11:54;1.50;;;1.40;;
26594;SDS011;14238;49.496;8.154;2023-09-18T11:25:30;2.40;;;2.20;;
26594;SDS011;14238;49.496;8.154;2023-09-18T11:27:56;3.67;;;1.80;;
26594;SDS011;14238;49.496;8.154;2023-09-18T11:30:22;4.87;;;2.30;;
26594;SDS011;14238;49.496;8.154;2023-09-18T11:32:50;2.53;;;1.70;;
26594;SDS011;14238;49.496;8.154;2023-09-18T11:35:17;2.90;;;1.93;;
26594;SDS011;14238;49.496;8.154;2023-09-18T11:37:43;2.47;;;1.70;;
26594;SDS011;14238;49.496;8.154;2023-09-18T11:40:26;1.83;;;1.57;;
26594;SDS011;14238;49.496;8.154;2023-09-18T11:43:18;2.60;;;1.40;;
26594;SDS011;14238;49.496;8.154;2023-09-18T11:46:00;5.57;;;2.67;;
26594;SDS011;14238;49.496;8.154;2023-09-18T11:48:29;3.90;;;2.10;;
26594;SDS011;14238;49.496;8.154;2023-09-18T11:50:57;2.10;;;1.70;;
26594;SDS011;14238;49.496;8.154;2023-09-18T11:53:24;3.60;;;1.80;;
26594;SDS011;14238;49.496;8.154;2023-09-18T11:55:52;2.60;;;1.80;;
26594;SDS011;14238;49.496;8.154;2023-09-18T11:58:17;3.40;;;1.93;;
26594;SDS011;14238;49.496;8.154;2023-09-18T12:00:48;2.17;;;1.97;;
26594;SDS011;14238;49.496;8.154;2023-09-18T12:03:20;2.13;;;1.93;;
26594;SDS011;14238;49.496;8.154;2023-09-18T12:05:51;1.83;;;1.63;;
26594;SDS011;14238;49.496;8.154;2023-09-18T12:08:22;3.40;;;2.00;;
26594;SDS011;14238;49.496;8.154;2023-09-18T12:10:51;2.30;;;1.80;;
26594;SDS011;14238;49.496;8.154;2023-09-18T12:13:18;1.97;;;1.80;;
26594;SDS011;14238;49.496;8.154;2023-09-18T12:15:43;2.07;;;1.87;;
26594;SDS011;14238;49.496;8.154;2023-09-18T12:18:09;1.70;;;1.60;;
26594;SDS011;14238;49.496;8.154;2023-09-18T12:20:48;3.27;;;2.47;;
26594;SDS011;14238;49.496;8.154;2023-09-18T12:23:17;2.17;;;1.83;;
26594;SDS011;14238;49.496;8.154;2023-09-18T12:25:49;3.00;;;2.20;;
26594;SDS011;14238;49.496;8.154;2023-09-18T12:28:21;3.30;;;2.00;;
26594;SDS011;14238;49.496;8.154;2023-09-18T12:30:47;2.53;;;2.33;;
26594;SDS011;14238;49.496;8.154;2023-09-18T12:33:15;3.40;;;1.80;;
26594;SDS011;14238;49.496;8.154;2023-09-18T12:35:42;3.03;;;2.40;;
26594;SDS011;14238;49.496;8.154;2023-09-18T12:38:14;4.57;;;2.27;;
26594;SDS011;14238;49.496;8.154;2023-09-18T12:40:41;3.00;;;2.50;;
26594;SDS011;14238;49.496;8.154;2023-09-18T12:43:09;2.03;;;1.83;;
26594;SDS011;14238;49.496;8.154;2023-09-18T12:45:35;4.80;;;2.80;;
26594;SDS011;14238;49.496;8.154;2023-09-18T12:48:01;2.33;;;2.10;;
26594;SDS011;14238;49.496;8.154;2023-09-18T12:50:28;1.87;;;1.53;;
26594;SDS011;14238;49.496;8.154;2023-09-18T12:53:05;2.23;;;1.90;;
26594;SDS011;14238;49.496;8.154;2023-09-18T12:55:38;2.20;;;1.73;;
26594;SDS011;14238;49.496;8.154;2023-09-18T12:58:05;3.47;;;2.30;;
26594;SDS011;14238;49.496;8.154;2023-09-18T13:00:34;2.37;;;2.17;;
26594;SDS011;14238;49.496;8.154;2023-09-18T13:03:01;2.53;;;2.33;;
26594;SDS011;14238;49.496;8.154;2023-09-18T13:05:29;1.83;;;1.70;;
26594;SDS011;14238;49.496;8.154;2023-09-18T13:08:01;3.00;;;1.90;;
26594;SDS011;14238;49.496;8.154;2023-09-18T13:10:39;9.30;;;2.60;;
26594;SDS011;14238;49.496;8.154;2023-09-18T13:13:26;2.13;;;1.50;;
26594;SDS011;14238;49.496;8.154;2023-09-18T13:15:51;3.13;;;1.70;;
26594;SDS011;14238;49.496;8.154;2023-09-18T13:18:21;4.83;;;1.60;;
26594;SDS011;14238;49.496;8.154;2023-09-18T13:20:48;3.23;;;2.07;;
26594;SDS011;14238;49.496;8.154;2023-09-18T13:23:15;3.07;;;2.00;;
26594;SDS011;14238;49.496;8.154;2023-09-18T13:25:41;1.97;;;1.80;;
26594;SDS011;14238;49.496;8.154;2023-09-18T13:28:11;2.67;;;1.80;;
26594;SDS011;14238;49.496;8.154;2023-09-18T13:30:38;2.60;;;1.90;;
26594;SDS011;14238;49.496;8.154;2023-09-18T13:33:05;3.23;;;2.07;;
26594;SDS011;14238;49.496;8.154;2023-09-18T13:35:33;2.23;;;2.13;;
26594;SDS011;14238;49.496;8.154;2023-09-18T13:38:00;3.80;;;2.20;;
26594;SDS011;14238;49.496;8.154;2023-09-18T13:40:26;2.10;;;1.90;;
26594;SDS011;14238;49.496;8.154;2023-09-18T13:42:52;2.00;;;1.90;;
26594;SDS011;14238;49.496;8.154;2023-09-18T13:45:18;3.80;;;2.10;;
26594;SDS011;14238;49.496;8.154;2023-09-18T13:47:45;3.00;;;1.80;;
26594;SDS011;14238;49.496;8.154;2023-09-18T13:50:10;3.23;;;2.20;;
26594;SDS011;14238;49.496;8.154;2023-09-18T13:52:38;1.63;;;1.53;;
26594;SDS011;14238;49.496;8.154;2023-09-18T13:55:03;5.27;;;2.37;;
26594;SDS011;14238;49.496;8.154;2023-09-18T13:57:30;1.80;;;1.70;;
26594;SDS011;14238;49.496;8.154;2023-09-18T13:59:56;4.57;;;2.10;;
26594;SDS011;14238;49.496;8.154;2023-09-18T14:02:22;2.47;;;1.73;;
26594;SDS011;14238;49.496;8.154;2023-09-18T14:04:52;1.87;;;1.70;;
26594;SDS011;14238;49.496;8.154;2023-09-18T14:07:17;1.60;;;1.50;;
26594;SDS011;14238;49.496;8.154;2023-09-18T14:09:43;2.90;;;1.60;;
26594;SDS011;14238;49.496;8.154;2023-09-18T14:12:08;3.43;;;2.40;;
26594;SDS011;14238;49.496;8.154;2023-09-18T14:14:34;2.37;;;1.77;;
26594;SDS011;14238;49.496;8.154;2023-09-18T14:17:00;1.80;;;1.70;;
26594;SDS011;14238;49.496;8.154;2023-09-18T14:19:27;2.03;;;1.90;;
26594;SDS011;14238;49.496;8.154;2023-09-18T14:21:52;1.90;;;1.77;;
26594;SDS011;14238;49.496;8.154;2023-09-18T14:24:18;1.60;;;1.50;;
26594;SDS011;14238;49.496;8.154;2023-09-18T14:26:47;2.23;;;2.00;;
26594;SDS011;14238;49.496;8.154;2023-09-18T14:29:13;1.43;;;1.33;;
26594;SDS011;14238;49.496;8.154;2023-09-18T14:31:40;2.23;;;2.00;;
26594;SDS011;14238;49.496;8.154;2023-09-18T14:34:05;2.03;;;1.70;;
26594;SDS011;14238;49.496;8.154;2023-09-18T14:36:34;2.20;;;1.70;;
26594;SDS011;14238;49.496;8.154;2023-09-18T14:39:00;1.60;;;1.50;;
26594;SDS011;14238;49.496;8.154;2023-09-18T14:41:27;2.00;;;1.90;;
26594;SDS011;14238;49.496;8.154;2023-09-18T14:43:53;1.80;;;1.70;;
26594;SDS011;14238;49.496;8.154;2023-09-18T14:46:19;4.00;;;1.73;;
26594;SDS011;14238;49.496;8.154;2023-09-18T14:48:46;2.10;;;1.73;;
26594;SDS011;14238;49.496;8.154;2023-09-18T14:51:11;2.60;;;1.50;;
26594;SDS011;14238;49.496;8.154;2023-09-18T14:53:37;2.00;;;1.80;;
26594;SDS011;14238;49.496;8.154;2023-09-18T14:56:02;1.83;;;1.73;;
26594;SDS011;14238;49.496;8.154;2023-09-18T14:58:29;4.67;;;2.13;;
26594;SDS011;14238;49.496;8.154;2023-09-18T15:00:55;3.57;;;1.90;;
26594;SDS011;14238;49.496;8.154;2023-09-18T15:03:21;1.50;;;1.30;;
26594;SDS011;14238;49.496;8.154;2023-09-18T15:05:49;1.70;;;1.60;;
26594;SDS011;14238;49.496;8.154;2023-09-18T15:08:16;2.30;;;1.87;;
26594;SDS011;14238;49.496;8.154;2023-09-18T15:10:41;3.17;;;1.80;;